Etusivu
METAR-TAF:

METAR-TAF

Lentoasemat :

El Bayadh, Algeria

Leveyspiiri: 33-43-15N, Pituuspiiri: 1-05-29E, korkeus merenpinnasta: 1366 m

Tämänhetkinen sää

Tämä raportti tehtiin 34 minuuttia sitten, kello 11.00 UTC
Tuuli 5 kn lännestä/lounaasta
Lämpötila 9°C
Kosteus 46%
Ilmanpaine 1021 hPa
Näkyvyys 10 km tai enemmän
ei pilviä alle 1500 m:ssä eikä cumulonimbus-pilviä

METAR: DAOY 231100Z 25005KT CAVOK 09/M02 Q1021

Aika: 12:34 (11:34 UTC)


TAF: puuttuu

Säähavainnot ja -ennusteet yli 4000 lentoasemalta (METAR- ja TAF-raportit).

Käytössä olevat sääasemat on merkitty karttaan keltaisilla ja punaisilla pisteillä.

Aseta hiiri pisteen päälle nähdäksesi sääaseman nimen.

Klikkaa sitten nähdäksesi säähavainnot ja -ennusteet.

Kartan vaihtaminen: klikkaa mustalla rastilla varustettuja vihreitä pisteitä, niin voit zoomata sisään; viivalla varustettua vihreää pistettä, niin voit zoomata ulos tai vihreitä nuolia, niin pääset viereisille kartoille.


METAR-TAF: